createdAt,value
2018-05-08T00:04:38.829Z,10.41
2018-05-08T00:10:33.797Z,9.94
2018-05-08T00:16:28.874Z,9.54
2018-05-08T00:22:23.816Z,9.66
2018-05-08T00:28:18.827Z,9.94
2018-05-08T00:34:13.824Z,9.6
2018-05-08T00:40:08.804Z,9.19
2018-05-08T00:46:03.855Z,9.84
2018-05-08T00:51:58.856Z,10.31
2018-05-08T00:57:53.785Z,10.31
2018-05-08T01:03:48.827Z,9.67
2018-05-08T01:09:43.789Z,9.81
2018-05-08T01:15:38.797Z,10.37
2018-05-08T01:21:33.822Z,10.14
2018-05-08T01:27:28.847Z,10.92
2018-05-08T01:33:23.850Z,9.55
2018-05-08T01:39:18.851Z,10.8
2018-05-08T01:45:13.895Z,10.89
2018-05-08T01:51:08.854Z,9.91
2018-05-08T01:57:03.851Z,11.86
2018-05-08T02:02:58.792Z,10.95
2018-05-08T02:08:53.860Z,12.33
2018-05-08T02:14:48.861Z,11.67
2018-05-08T02:20:43.846Z,11.91
2018-05-08T02:26:38.846Z,12.61
2018-05-08T02:32:33.851Z,11.89
2018-05-08T02:38:28.881Z,11.85
2018-05-08T02:44:23.886Z,11.97
2018-05-08T02:50:18.873Z,12.13
2018-05-08T02:56:13.852Z,11.87
2018-05-08T03:02:08.901Z,11.62
2018-05-08T03:08:03.829Z,10.98
2018-05-08T03:13:58.861Z,12.21
2018-05-08T03:19:53.871Z,12.54
2018-05-08T03:25:48.930Z,12.58
2018-05-08T03:31:43.941Z,12.27
2018-05-08T03:37:38.895Z,12.56
2018-05-08T03:43:33.897Z,13.89
2018-05-08T03:49:28.877Z,16.21
2018-05-08T03:55:23.891Z,14.85
2018-05-08T04:01:18.920Z,13.76
2018-05-08T04:07:13.873Z,14.74
2018-05-08T04:13:08.866Z,16.85
2018-05-08T04:19:03.855Z,15.42
2018-05-08T04:24:58.949Z,14.7
2018-05-08T04:30:53.888Z,18.6
2018-05-08T04:36:48.862Z,20.24
2018-05-08T04:42:43.863Z,21.04
2018-05-08T04:48:38.894Z,19.86
2018-05-08T04:54:33.931Z,22.98
2018-05-08T05:00:28.915Z,26.9
2018-05-08T05:06:23.899Z,28.4
2018-05-08T05:12:18.911Z,30.34
2018-05-08T05:18:13.852Z,32.18
2018-05-08T05:24:08.913Z,33.65
2018-05-08T05:30:03.895Z,34.47
2018-05-08T05:35:58.889Z,34.94
2018-05-08T05:41:53.940Z,33.78
2018-05-08T05:47:48.918Z,34.1
2018-05-08T05:53:43.908Z,34.85
2018-05-08T05:59:38.914Z,33.31
2018-05-08T06:05:33.883Z,36.4
2018-05-08T06:11:28.909Z,34.71
2018-05-08T06:17:23.904Z,37.69
2018-05-08T06:23:18.893Z,34.01
2018-05-08T06:29:13.913Z,35.87
2018-05-08T06:35:08.891Z,37.98
2018-05-08T06:41:03.894Z,39.09
2018-05-08T06:46:58.883Z,37.9
2018-05-08T06:52:53.952Z,43.15
2018-05-08T06:58:48.883Z,39.13
2018-05-08T07:04:43.927Z,37.6
2018-05-08T07:10:38.930Z,37.39
2018-05-08T07:16:33.911Z,37.29
2018-05-08T07:22:28.894Z,40.36
2018-05-08T07:28:23.939Z,37.83
2018-05-08T07:34:18.908Z,36.23
2018-05-08T07:40:13.945Z,38.13
2018-05-08T07:46:08.975Z,36.09
2018-05-08T07:52:03.913Z,36.69
2018-05-08T07:57:58.939Z,33.97
2018-05-08T08:03:53.885Z,34.26
2018-05-08T08:09:48.885Z,33.35
2018-05-08T08:15:43.910Z,33.05
2018-05-08T08:21:38.953Z,32.3
2018-05-08T08:27:33.946Z,34.75
2018-05-08T08:33:28.931Z,31.94
2018-05-08T08:39:23.924Z,32.09
2018-05-08T08:45:18.927Z,32.35
2018-05-08T08:51:14.063Z,30.28
2018-05-08T08:57:09.002Z,29
2018-05-08T09:03:03.975Z,29.59
2018-05-08T09:08:58.992Z,26.38
2018-05-08T09:14:53.923Z,24.59
2018-05-08T09:21:01.132Z,27.54
2018-05-08T09:26:56.180Z,22.46
2018-05-08T09:32:51.258Z,21.94
2018-05-08T09:38:46.134Z,27.49
2018-05-08T09:44:41.133Z,31.01
2018-05-08T09:50:36.174Z,34.02
2018-05-08T09:56:31.158Z,30.04
2018-05-08T10:02:26.146Z,27.8
2018-05-08T10:08:21.150Z,30.47
2018-05-08T10:14:16.153Z,22.78
2018-05-08T10:20:11.146Z,29.71
2018-05-08T10:26:06.182Z,19.33
2018-05-08T10:32:01.153Z,24.57
2018-05-08T10:37:56.146Z,20.82
2018-05-08T10:43:51.165Z,20.77
2018-05-08T10:49:46.169Z,18.5
2018-05-08T10:55:41.231Z,19.29
2018-05-08T11:01:36.245Z,17.81
2018-05-08T11:07:31.178Z,16.18
2018-05-08T11:13:26.194Z,15.31
2018-05-08T11:19:21.153Z,15.1
2018-05-08T11:25:16.195Z,16.49
2018-05-08T11:31:11.205Z,17.95
2018-05-08T11:37:06.185Z,19.93
2018-05-08T11:43:01.181Z,16.63
2018-05-08T11:48:56.196Z,16.54
2018-05-08T11:54:51.213Z,14.22
2018-05-08T12:00:46.180Z,10.97
2018-05-08T12:06:41.205Z,9.89
2018-05-08T12:12:36.217Z,10.88
2018-05-08T12:18:31.198Z,8.27
2018-05-08T12:24:26.201Z,9.06
2018-05-08T12:30:21.198Z,8.69
2018-05-08T12:36:16.286Z,8.54
2018-05-08T12:42:11.324Z,8.33
2018-05-08T12:48:06.220Z,14.99
2018-05-08T12:54:01.201Z,9.03
2018-05-08T12:59:56.223Z,10.75
2018-05-08T13:05:51.198Z,6.84
2018-05-08T13:11:46.219Z,7.22
2018-05-08T13:17:41.233Z,9.57
2018-05-08T13:23:36.241Z,9.15
2018-05-08T13:29:31.240Z,9.59
2018-05-08T13:35:26.259Z,10.79
2018-05-08T13:41:21.237Z,11.36
2018-05-08T13:47:16.234Z,11.77
2018-05-08T13:53:11.234Z,13.71
2018-05-08T13:59:06.220Z,15.51
2018-05-08T14:05:01.236Z,26.13
2018-05-08T14:10:56.244Z,16.64
2018-05-08T14:16:51.249Z,17.2
2018-05-08T14:22:46.294Z,17.81
2018-05-08T14:28:41.249Z,23.39
2018-05-08T14:34:36.257Z,26.78
2018-05-08T14:40:31.267Z,20.65
2018-05-08T14:46:26.293Z,16.31
2018-05-08T14:52:37.651Z,16.66
2018-05-08T14:58:32.645Z,15.05
2018-05-08T15:04:27.877Z,14.02
2018-05-08T15:10:22.675Z,13.58
2018-05-08T15:16:17.672Z,12.3
2018-05-08T15:22:12.657Z,11.35
2018-05-08T15:28:07.691Z,10.43
2018-05-08T15:34:02.694Z,10.96
2018-05-08T15:39:57.660Z,5.73
2018-05-08T15:45:52.662Z,5.51
2018-05-08T15:51:47.643Z,5.42
2018-05-08T15:57:42.644Z,5.35
2018-05-08T16:03:37.688Z,6.13
2018-05-08T16:09:32.721Z,6.11
2018-05-08T16:15:27.740Z,6.2
2018-05-08T16:21:22.689Z,6.97
2018-05-08T16:27:17.674Z,7.2
2018-05-08T16:33:12.682Z,6.91
2018-05-08T16:39:07.720Z,6.61
2018-05-08T16:45:02.776Z,6.01
2018-05-08T16:50:57.687Z,5.78
2018-05-08T16:56:52.683Z,6.14
2018-05-08T17:02:47.781Z,5.94
2018-05-08T17:08:42.704Z,5.76
2018-05-08T17:14:37.737Z,5.93
2018-05-08T17:20:32.719Z,5.86
2018-05-08T17:26:27.747Z,5.88
2018-05-08T17:32:22.689Z,6
2018-05-08T17:38:17.739Z,6.18
2018-05-08T17:44:12.708Z,6.58
2018-05-08T17:50:07.743Z,7.03
2018-05-08T17:56:02.701Z,7.95
2018-05-08T18:01:57.684Z,6.9
2018-05-08T18:07:52.708Z,14.13
2018-05-08T18:13:47.704Z,9.21
2018-05-08T18:19:42.729Z,7.71
2018-05-08T18:25:37.827Z,6.47
2018-05-08T18:31:32.728Z,7.12
2018-05-08T18:37:27.733Z,7.77
2018-05-08T18:43:22.711Z,7.65
2018-05-08T18:49:17.851Z,7
2018-05-08T18:55:12.711Z,6.05
2018-05-08T19:01:07.761Z,6.23
2018-05-08T19:07:02.784Z,5.1
2018-05-08T19:12:57.743Z,5.66
2018-05-08T19:18:52.738Z,5.33
2018-05-08T19:24:47.754Z,4.95
2018-05-08T19:30:42.745Z,5.07
2018-05-08T19:36:37.716Z,5
2018-05-08T19:42:32.735Z,4.85
2018-05-08T19:48:27.713Z,6.33
2018-05-08T19:54:22.698Z,6.44
2018-05-08T20:00:17.720Z,6.06
2018-05-08T20:06:12.741Z,86.15
2018-05-08T20:12:07.750Z,15.45
2018-05-08T20:18:02.770Z,6.45
2018-05-08T20:23:57.725Z,7.31
2018-05-08T20:29:52.707Z,7.02
2018-05-08T20:35:47.733Z,6.81
2018-05-08T20:41:42.759Z,7.08
2018-05-08T20:47:37.740Z,7.84
2018-05-08T20:53:32.707Z,6.96
2018-05-08T20:59:27.711Z,7.23
2018-05-08T21:05:22.724Z,7.01
2018-05-08T21:11:17.732Z,7.63
2018-05-08T21:17:12.761Z,7.48
2018-05-08T21:23:07.732Z,8.13
2018-05-08T21:29:02.778Z,8.66
2018-05-08T21:34:57.746Z,12.5
2018-05-08T21:40:52.722Z,11.48
2018-05-08T21:46:47.764Z,14.41
2018-05-08T21:52:42.707Z,9.62
2018-05-08T21:58:37.759Z,9.89
2018-05-08T22:04:32.715Z,9.21
2018-05-08T22:10:27.754Z,9.13
2018-05-08T22:16:22.721Z,8.94
2018-05-08T22:22:17.787Z,8.66
2018-05-08T22:28:12.762Z,10.3
2018-05-08T22:34:07.856Z,10.45
2018-05-08T22:40:02.868Z,12.54
2018-05-08T22:45:57.728Z,16.32
2018-05-08T22:51:52.764Z,15.69
2018-05-08T22:57:47.754Z,9.17
2018-05-08T23:03:42.726Z,11.33
2018-05-08T23:09:37.724Z,12.8
2018-05-08T23:15:32.727Z,12.31
2018-05-08T23:21:27.731Z,12.02
2018-05-08T23:27:22.791Z,10.82
2018-05-08T23:33:17.736Z,8.8
2018-05-08T23:39:12.716Z,9.35
2018-05-08T23:45:07.728Z,7.64
2018-05-08T23:51:02.726Z,6.39
2018-05-08T23:56:57.765Z,6.54
